Time;durP1;ratioP1;P1;durP2;ratioP2;P2;SDS_P1;SDS_P2;PMS_P1;PMS_P2;Temp;Humidity;BMP_temperature;BMP_pressure;BME280_temperature;BME280_humidity;BME280_pressure;Samples;Min_cycle;Max_cycle;Signal;HPM_P1;HPM_P2
2023/09/02 00:01:33;;;;;;;14.98;11.32;;;;;;;18.71;100.00;101536.16;5117233;28;20019;-63
2023/09/02 00:03:58;;;;;;;13.57;10.60;;;;;;;18.72;100.00;101540.63;5099270;28;20035;-62
2023/09/02 00:06:23;;;;;;;12.48;11.18;;;;;;;18.67;100.00;101535.28;5117356;28;20028;-63
2023/09/02 00:08:49;;;;;;;13.38;11.50;;;;;;;18.62;100.00;101536.22;5117236;28;20546;-62
2023/09/02 00:11:14;;;;;;;16.15;11.10;;;;;;;18.62;100.00;101534.44;5117268;28;20028;-63
2023/09/02 00:13:39;;;;;;;12.32;10.68;;;;;;;18.64;100.00;101539.78;5117398;28;20016;-62
2023/09/02 00:16:05;;;;;;;13.65;10.55;;;;;;;18.66;100.00;101527.25;5117142;28;20038;-62
2023/09/02 00:18:30;;;;;;;13.15;11.13;;;;;;;18.69;100.00;101529.91;5098862;28;20058;-62
2023/09/02 00:20:56;;;;;;;13.27;11.30;;;;;;;18.71;100.00;101536.16;5117211;28;20031;-63
2023/09/02 00:23:21;;;;;;;13.05;10.40;;;;;;;18.73;100.00;101535.25;5116680;28;20027;-62
2023/09/02 00:25:46;;;;;;;12.00;10.80;;;;;;;18.77;100.00;101530.72;5117251;28;20058;-62
2023/09/02 00:28:12;;;;;;;12.60;10.95;;;;;;;18.75;100.00;101525.38;5116862;28;20028;-62
2023/09/02 00:30:37;;;;;;;12.00;10.70;;;;;;;18.76;100.00;101528.97;5117171;28;20028;-63
2023/09/02 00:33:03;;;;;;;12.77;10.48;;;;;;;18.72;100.00;101533.47;5116980;28;20030;-62
2023/09/02 00:35:28;;;;;;;16.35;11.02;;;;;;;18.64;100.00;101540.66;5116599;28;20052;-63
2023/09/02 00:37:54;;;;;;;13.00;11.00;;;;;;;18.58;100.00;101542.50;5116867;28;20039;-63
2023/09/02 00:40:22;;;;;;;15.75;10.88;;;;;;;18.49;100.00;101536.34;5116869;28;20434;-62
2023/09/02 00:42:49;;;;;;;12.93;10.73;;;;;;;18.50;100.00;101547.97;5116695;28;20477;-62
2023/09/02 00:45:15;;;;;;;12.20;11.00;;;;;;;18.46;100.00;101536.41;5116641;28;20027;-63
2023/09/02 00:47:41;;;;;;;12.98;11.68;;;;;;;18.48;100.00;101544.41;5116529;28;20035;-62
2023/09/02 00:50:07;;;;;;;12.65;11.02;;;;;;;18.51;100.00;101544.38;5116763;28;20016;-62
2023/09/02 00:52:33;;;;;;;11.43;10.00;;;;;;;18.54;100.00;101541.66;5116171;28;20418;-62
2023/09/02 00:54:59;;;;;;;12.52;11.07;;;;;;;18.59;100.00;101539.84;5116369;28;20028;-61
2023/09/02 00:57:25;;;;;;;13.55;10.65;;;;;;;18.64;100.00;101551.38;5116301;28;20032;-62
2023/09/02 00:59:51;;;;;;;11.95;10.43;;;;;;;18.61;100.00;101546.03;5116610;28;20130;-61
2023/09/02 01:02:17;;;;;;;13.48;10.80;;;;;;;18.59;100.00;101544.31;5114742;28;20429;-62
2023/09/02 01:04:42;;;;;;;11.93;10.73;;;;;;;18.58;100.00;101546.06;5116248;28;20024;-61
2023/09/02 01:07:08;;;;;;;12.05;10.80;;;;;;;18.52;100.00;101547.03;5116103;28;20504;-61
2023/09/02 01:09:34;;;;;;;12.95;11.45;;;;;;;18.50;100.00;101553.34;5116109;28;20031;-62
2023/09/02 01:11:59;;;;;;;12.57;10.98;;;;;;;18.44;100.00;101546.22;5116152;28;20032;-61
2023/09/02 01:14:25;;;;;;;14.60;10.63;;;;;;;18.51;100.00;101549.75;5116170;28;20066;-61
2023/09/02 01:16:50;;;;;;;11.52;10.32;;;;;;;18.53;100.00;101551.47;5115990;28;20130;-61
2023/09/02 01:19:18;;;;;;;12.45;10.63;;;;;;;18.54;100.00;101555.03;5116107;28;20039;-61
2023/09/02 01:22:14;;;;;;;11.98;10.77;;;;;;;18.55;100.00;101548.81;5115825;28;20393;-61
2023/09/02 01:25:01;;;;;;;17.48;11.18;;;;;;;18.51;100.00;101555.09;5115587;28;20032;-61
2023/09/02 01:28:01;;;;;;;11.48;10.27;;;;;;;18.53;100.00;101555.94;5116006;28;20435;-61
2023/09/02 01:30:32;;;;;;;15.23;10.77;;;;;;;18.57;100.00;101549.66;5061517;28;20059;-62
2023/09/02 01:33:02;;;;;;;12.00;10.75;;;;;;;18.56;100.00;101555.03;5115622;28;20035;-62
2023/09/02 01:35:32;;;;;;;13.88;10.85;;;;;;;18.50;100.00;101556.88;5115666;28;20036;-61
2023/09/02 01:37:58;;;;;;;13.25;10.82;;;;;;;18.56;100.00;101557.72;5115534;28;20070;-62
2023/09/02 01:40:25;;;;;;;13.15;11.23;;;;;;;18.55;100.00;101555.97;5115502;28;20055;-62
2023/09/02 01:42:53;;;;;;;15.48;11.15;;;;;;;18.57;100.00;101555.00;5115463;28;20026;-62
2023/09/02 01:45:19;;;;;;;12.57;10.73;;;;;;;18.51;100.00;101555.97;5115487;28;20032;-62
2023/09/02 01:47:50;;;;;;;12.10;10.68;;;;;;;18.51;100.00;101557.78;5115407;28;20026;-61
2023/09/02 01:50:19;;;;;;;12.23;10.65;;;;;;;18.50;100.00;101562.25;5115821;28;20031;-62
2023/09/02 01:52:47;;;;;;;13.13;10.20;;;;;;;18.41;100.00;101569.44;5096574;28;20404;-62
2023/09/02 01:55:12;;;;;;;11.82;9.85;;;;;;;18.37;100.00;101568.63;5096940;28;20462;-62
2023/09/02 01:57:39;;;;;;;12.07;9.98;;;;;;;18.40;100.00;101575.72;5115259;28;20059;-62
2023/09/02 02:00:05;;;;;;;16.08;10.70;;;;;;;18.41;100.00;101575.69;5115373;28;20055;-62
2023/09/02 02:02:31;;;;;;;17.33;10.55;;;;;;;18.45;100.00;101574.75;5114999;28;20415;-62
2023/09/02 02:05:02;;;;;;;10.30;8.93;;;;;;;18.48;100.00;101572.06;5115038;28;20019;-62
2023/09/02 02:07:34;;;;;;;12.25;10.15;;;;;;;18.48;100.00;101569.38;5114896;28;20027;-62
2023/09/02 02:10:03;;;;;;;15.30;9.93;;;;;;;18.41;100.00;101573.00;5096684;28;20024;-62
2023/09/02 02:12:30;;;;;;;11.52;10.10;;;;;;;18.38;100.00;101573.06;5114843;28;20023;-62
2023/09/02 02:14:55;;;;;;;14.45;10.40;;;;;;;18.27;100.00;101574.94;5114391;28;20104;-62
2023/09/02 02:17:20;;;;;;;11.43;9.80;;;;;;;18.22;100.00;101575.00;5115056;28;20114;-62
2023/09/02 02:19:46;;;;;;;13.40;10.25;;;;;;;18.08;100.00;101584.06;5114757;28;20481;-63
2023/09/02 02:22:11;;;;;;;12.40;9.68;;;;;;;18.09;100.00;101580.47;5114752;28;20024;-62
2023/09/02 02:24:37;;;;;;;15.35;10.40;;;;;;;18.08;100.00;101579.59;5114534;28;20425;-62
2023/09/02 02:27:03;;;;;;;10.50;9.40;;;;;;;18.09;100.00;101584.03;5114835;28;20024;-61
2023/09/02 02:29:28;;;;;;;13.07;10.15;;;;;;;18.08;100.00;101581.38;5114765;28;20497;-62
2023/09/02 02:31:54;;;;;;;11.88;9.95;;;;;;;18.08;100.00;101579.59;5114458;28;20024;-62
2023/09/02 02:34:19;;;;;;;13.00;9.98;;;;;;;18.09;100.00;101584.03;5114574;28;20012;-62
2023/09/02 02:36:45;;;;;;;13.82;10.02;;;;;;;18.17;100.00;101583.97;5114187;28;20401;-61
2023/09/02 02:39:10;;;;;;;13.00;9.77;;;;;;;18.21;100.00;101578.56;5114431;28;20362;-62
2023/09/02 02:41:36;;;;;;;12.63;9.63;;;;;;;18.26;100.00;101591.91;5114296;28;20381;-63
2023/09/02 02:44:03;;;;;;;13.50;9.98;;;;;;;18.23;100.00;101595.47;5096034;28;20470;-63
2023/09/02 02:46:28;;;;;;;13.57;9.65;;;;;;;18.22;100.00;101603.53;5114171;28;20038;-62
2023/09/02 02:48:53;;;;;;;11.00;9.82;;;;;;;18.20;100.00;101600.88;5114206;28;20028;-62
2023/09/02 02:51:19;;;;;;;14.88;10.13;;;;;;;18.15;100.00;101594.66;5114292;28;20054;-62
2023/09/02 02:53:45;;;;;;;11.05;9.68;;;;;;;18.12;100.00;101593.81;5113869;28;20054;-62
2023/09/02 02:56:10;;;;;;;11.52;10.07;;;;;;;18.14;100.00;101595.56;5114146;28;20024;-62
2023/09/02 02:58:35;;;;;;;15.60;10.38;;;;;;;18.19;100.00;101598.19;5114100;28;20042;-62
2023/09/02 03:01:07;;;;;;;18.20;10.10;;;;;;;18.22;100.00;101593.72;5095546;28;20059;-62
2023/09/02 03:03:34;;;;;;;12.90;9.90;;;;;;;18.22;100.00;101600.84;5114242;28;20035;-63
2023/09/02 03:06:05;;;;;;;13.82;9.77;;;;;;;18.16;100.00;101596.47;5114149;28;20194;-62
2023/09/02 03:08:32;;;;;;;18.40;9.85;;;;;;;18.20;100.00;101597.28;5113721;28;20481;-62
2023/09/02 03:11:03;;;;;;;10.30;9.20;;;;;;;18.20;100.00;101598.22;5114073;28;20027;-62
2023/09/02 03:13:30;;;;;;;12.98;9.63;;;;;;;18.22;100.00;101590.16;5096081;28;20059;-62
2023/09/02 03:15:56;;;;;;;13.82;9.35;;;;;;;18.23;100.00;101586.56;5096101;28;20027;-62
2023/09/02 03:18:22;;;;;;;11.65;8.95;;;;;;;18.25;100.00;101588.34;5113855;28;20110;-62
2023/09/02 03:20:48;;;;;;;11.77;9.20;;;;;;;18.27;100.00;101597.22;5113871;28;20052;-62
2023/09/02 03:23:14;;;;;;;12.15;9.90;;;;;;;18.22;100.00;101592.84;5095034;28;20051;-63
2023/09/02 03:25:40;;;;;;;14.05;9.40;;;;;;;18.19;100.00;101596.41;5112783;28;20016;-62
2023/09/02 03:28:06;;;;;;;12.13;9.05;;;;;;;18.18;100.00;101594.63;5113550;28;20058;-63
2023/09/02 03:30:31;;;;;;;12.73;9.60;;;;;;;18.20;100.00;101594.63;5113822;28;20172;-61
2023/09/02 03:32:58;;;;;;;12.63;9.68;;;;;;;18.16;100.00;101596.47;5113600;28;20052;-63
2023/09/02 03:35:23;;;;;;;10.23;9.23;;;;;;;18.18;100.00;101594.63;5113729;28;20058;-62
2023/09/02 03:37:49;;;;;;;13.60;9.93;;;;;;;18.19;100.00;101600.88;5095157;28;20086;-62
2023/09/02 03:40:15;;;;;;;11.80;9.35;;;;;;;18.14;100.00;101600.03;5113378;28;20114;-63
2023/09/02 03:42:41;;;;;;;14.82;9.73;;;;;;;18.15;100.00;101593.78;5113389;28;20092;-63
2023/09/02 03:45:09;;;;;;;13.95;9.75;;;;;;;18.12;100.00;101601.84;5113396;28;20019;-62
2023/09/02 03:47:34;;;;;;;12.65;9.65;;;;;;;18.14;100.00;101605.38;5113463;28;20084;-62
2023/09/02 03:50:00;;;;;;;16.30;9.80;;;;;;;18.14;100.00;101608.94;5113348;28;20389;-62
2023/09/02 03:52:25;;;;;;;13.55;8.85;;;;;;;18.17;100.00;101608.94;5113192;28;20031;-62
2023/09/02 03:54:51;;;;;;;10.15;8.88;;;;;;;18.11;100.00;101621.44;5113124;28;20027;-62
2023/09/02 03:57:16;;;;;;;10.60;9.45;;;;;;;18.07;100.00;101619.69;5113240;28;20027;-62
2023/09/02 03:59:41;;;;;;;11.38;9.38;;;;;;;18.07;100.00;101617.03;5113283;28;20056;-63
2023/09/02 04:02:07;;;;;;;12.38;9.13;;;;;;;18.09;100.00;101617.91;5113170;28;20028;-62
2023/09/02 04:04:33;;;;;;;13.32;9.60;;;;;;;18.11;100.00;101610.75;5113173;28;20080;-62
2023/09/02 04:06:58;;;;;;;10.77;9.57;;;;;;;18.12;100.00;101620.56;5113346;28;20381;-63
2023/09/02 04:09:24;;;;;;;10.60;8.88;;;;;;;18.12;100.00;101620.56;5113060;28;20035;-63
2023/09/02 04:11:49;;;;;;;13.55;9.68;;;;;;;18.12;100.00;101620.56;5113363;28;20023;-62
2023/09/02 04:14:14;;;;;;;11.02;9.20;;;;;;;18.12;100.00;101610.75;5113327;28;20434;-62
2023/09/02 04:16:40;;;;;;;11.27;8.80;;;;;;;18.15;100.00;101620.53;5113078;28;20107;-62
2023/09/02 04:19:05;;;;;;;12.52;8.70;;;;;;;18.17;100.00;101616.06;5113013;28;20080;-62
2023/09/02 04:21:31;;;;;;;12.85;8.90;;;;;;;18.17;100.00;101618.75;5112965;28;20030;-62
2023/09/02 04:23:56;;;;;;;9.57;8.55;;;;;;;18.17;100.00;101616.94;5112692;28;20032;-62
2023/09/02 04:26:22;;;;;;;9.52;8.52;;;;;;;18.16;100.00;101620.53;5112985;28;20028;-62
2023/09/02 04:28:48;;;;;;;11.63;8.68;;;;;;;18.14;100.00;101610.72;5113165;28;20027;-62
2023/09/02 04:31:14;;;;;;;10.50;8.65;;;;;;;18.14;100.00;101619.63;5113004;28;20099;-62
2023/09/02 04:33:39;;;;;;;12.73;8.60;;;;;;;18.08;100.00;101619.72;5112872;28;20508;-62
2023/09/02 04:36:05;;;;;;;11.07;8.48;;;;;;;18.05;100.00;101626.88;5112690;28;20055;-62
2023/09/02 04:38:31;;;;;;;14.10;7.53;;;;;;;18.06;100.00;101620.59;5116278;28;20050;-62
2023/09/02 04:40:56;;;;;;;13.05;8.48;;;;;;;18.01;100.00;101631.34;5116711;28;20039;-62
2023/09/02 04:43:23;;;;;;;13.50;7.85;;;;;;;18.06;100.00;101624.16;5116936;28;20038;-62
2023/09/02 04:45:48;;;;;;;9.88;7.80;;;;;;;18.08;100.00;101622.38;5116671;28;20024;-62
2023/09/02 04:48:14;;;;;;;9.82;8.15;;;;;;;18.06;100.00;101626.84;5116621;28;20185;-62
2023/09/02 04:50:40;;;;;;;9.52;6.50;;;;;;;18.11;100.00;101634.81;5116572;28;20114;-62
2023/09/02 04:53:07;;;;;;;11.65;7.30;;;;;;;18.10;100.00;101635.72;5116407;28;20506;-62
2023/09/02 04:55:33;;;;;;;9.88;7.80;;;;;;;18.05;100.00;101633.09;5116638;28;20027;-62
2023/09/02 04:57:59;;;;;;;10.18;7.60;;;;;;;18.08;100.00;101633.06;5116230;28;20024;-62
2023/09/02 05:00:28;;;;;;;9.98;7.25;;;;;;;18.02;100.00;101634.00;5116085;28;20393;-62
2023/09/02 05:02:55;;;;;;;11.27;7.38;;;;;;;17.98;100.00;101648.28;5097355;28;20038;-62
2023/09/02 05:05:22;;;;;;;10.05;7.35;;;;;;;17.96;100.00;101643.88;5115905;28;20016;-62
2023/09/02 05:07:48;;;;;;;8.30;6.95;;;;;;;17.92;100.00;101645.66;5115835;28;20039;-62
2023/09/02 05:10:14;;;;;;;11.23;7.07;;;;;;;17.91;100.00;101645.69;5115503;28;20020;-62
2023/09/02 05:12:41;;;;;;;13.77;7.70;;;;;;;17.92;100.00;101643.00;5115770;28;20032;-62
2023/09/02 05:15:07;;;;;;;9.90;7.45;;;;;;;17.93;100.00;101644.75;5115482;28;20030;-62
2023/09/02 05:17:33;;;;;;;9.68;6.70;;;;;;;17.99;100.00;101649.19;5115503;28;20039;-62
2023/09/02 05:19:59;;;;;;;11.73;7.18;;;;;;;18.01;100.00;101650.06;5097118;28;20031;-62
2023/09/02 05:22:25;;;;;;;11.00;7.32;;;;;;;17.97;100.00;101657.22;5115532;28;20023;-62
2023/09/02 05:24:50;;;;;;;11.35;7.53;;;;;;;17.96;100.00;101659.91;5115231;28;20093;-62
2023/09/02 05:27:15;;;;;;;11.23;7.50;;;;;;;17.90;100.00;101662.59;5115562;28;20411;-62
2023/09/02 05:29:41;;;;;;;9.60;7.50;;;;;;;17.96;100.00;101665.25;5115157;28;20103;-62
2023/09/02 05:32:08;;;;;;;10.95;7.63;;;;;;;17.94;100.00;101669.72;5115146;28;20081;-61
2023/09/02 05:34:33;;;;;;;8.48;7.10;;;;;;;17.89;100.00;101677.75;5115174;28;20034;-63
2023/09/02 05:37:00;;;;;;;13.77;6.78;;;;;;;17.85;100.00;101676.00;5114894;28;20043;-62
2023/09/02 05:39:26;;;;;;;12.98;7.20;;;;;;;17.77;100.00;101689.44;5115304;28;20126;-63
2023/09/02 05:41:51;;;;;;;11.55;7.38;;;;;;;17.71;100.00;101689.41;5115177;28;20455;-62
2023/09/02 05:44:17;;;;;;;10.43;7.13;;;;;;;17.67;100.00;101693.00;5115323;28;20027;-62
2023/09/02 05:46:42;;;;;;;11.30;7.28;;;;;;;17.64;100.00;101693.00;5114848;28;20460;-62
2023/09/02 05:49:09;;;;;;;14.35;7.40;;;;;;;17.70;100.00;101689.44;5114412;28;20033;-62
2023/09/02 05:51:34;;;;;;;9.35;6.72;;;;;;;17.79;100.00;101693.88;5114779;28;20042;-62
2023/09/02 05:54:00;;;;;;;8.73;7.20;;;;;;;17.88;100.00;101685.81;5114612;28;20028;-62
2023/09/02 05:56:25;;;;;;;10.05;6.80;;;;;;;17.90;100.00;101695.59;5114822;28;20381;-62
2023/09/02 05:58:51;;;;;;;9.30;6.53;;;;;;;17.97;100.00;101693.75;5114984;28;20027;-62
2023/09/02 06:01:16;;;;;;;7.00;6.18;;;;;;;18.01;100.00;101698.19;5114566;28;20035;-63
2023/09/02 06:03:42;;;;;;;9.23;6.55;;;;;;;18.03;100.00;101685.72;5114584;28;20023;-62
2023/09/02 06:06:11;;;;;;;8.63;6.32;;;;;;;18.07;100.00;101689.25;5114901;28;20036;-62
2023/09/02 06:08:36;;;;;;;8.93;6.30;;;;;;;18.14;100.00;101699.00;5114266;28;20055;-62
2023/09/02 06:11:03;;;;;;;8.52;6.38;;;;;;;18.14;100.00;101701.69;5114470;28;20153;-62
2023/09/02 06:13:29;;;;;;;6.82;6.10;;;;;;;18.12;100.00;101706.16;5114222;28;20020;-62
2023/09/02 06:16:03;;;;;;;8.20;6.20;;;;;;;18.13;100.00;101710.63;5114373;28;20384;-62
2023/09/02 06:18:29;;;;;;;7.18;6.30;;;;;;;18.11;100.00;101705.25;5114239;28;20473;-62
2023/09/02 06:20:55;;;;;;;7.45;5.88;;;;;;;18.15;100.00;101716.81;5114395;28;20438;-62
2023/09/02 06:23:20;;;;;;;9.05;5.97;;;;;;;18.16;100.00;101710.59;5113924;28;20111;-63
2023/09/02 06:25:58;;;;;;;8.15;5.95;;;;;;;18.18;100.00;101719.50;5114087;28;20047;-62
2023/09/02 06:28:24;;;;;;;12.05;6.30;;;;;;;18.23;100.00;101723.00;5114117;28;20019;-63
2023/09/02 06:30:50;;;;;;;7.13;5.97;;;;;;;18.22;100.00;101729.28;5113926;28;20080;-63
2023/09/02 06:33:16;;;;;;;16.15;6.55;;;;;;;18.33;100.00;101730.09;5095812;28;20024;-62
2023/09/02 06:35:42;;;;;;;11.70;6.88;;;;;;;18.32;100.00;101732.75;5113994;28;20099;-63
2023/09/02 06:38:07;;;;;;;10.93;7.43;;;;;;;18.41;100.00;101738.94;5113752;28;20506;-62
2023/09/02 06:40:33;;;;;;;8.75;7.20;;;;;;;18.46;100.00;101741.59;5113660;28;20015;-63
2023/09/02 06:42:58;;;;;;;13.35;6.88;;;;;;;18.51;100.00;101740.66;5113708;28;20077;-63
2023/09/02 06:45:25;;;;;;;13.88;7.05;;;;;;;18.54;100.00;101747.75;5113724;28;20102;-63
2023/09/02 06:47:51;;;;;;;8.23;7.18;;;;;;;18.59;100.00;101754.00;5113742;28;20024;-63
2023/09/02 06:50:16;;;;;;;10.90;6.53;;;;;;;18.61;100.00;101754.84;5113702;28;20027;-63
2023/09/02 06:52:41;;;;;;;9.88;6.97;;;;;;;18.66;100.00;101761.06;5113329;28;20492;-62
2023/09/02 06:55:07;;;;;;;11.75;7.18;;;;;;;18.72;100.00;101771.75;5113588;28;20028;-62
2023/09/02 06:57:33;;;;;;;14.23;7.80;;;;;;;18.75;100.00;101769.03;5113495;28;20051;-63
2023/09/02 06:59:58;;;;;;;12.98;8.05;;;;;;;18.80;100.00;101770.78;5113733;28;20058;-62
2023/09/02 07:02:24;;;;;;;13.18;7.72;;;;;;;18.83;100.00;101784.16;5095014;28;20465;-62
2023/09/02 07:04:49;;;;;;;12.82;8.25;;;;;;;18.81;100.00;101794.00;5113407;28;20062;-63
2023/09/02 07:07:15;;;;;;;9.70;7.82;;;;;;;18.77;100.00;101795.81;5113351;28;20039;-63
2023/09/02 07:09:40;;;;;;;10.70;8.30;;;;;;;18.80;100.00;101794.88;5113169;28;20380;-63
2023/09/02 07:12:06;;;;;;;14.52;8.70;;;;;;;18.81;100.00;101804.72;5113284;28;20036;-63
2023/09/02 07:14:31;;;;;;;12.00;8.77;;;;;;;18.89;100.00;101811.78;5113418;28;20032;-62
2023/09/02 07:16:57;;;;;;;11.52;8.73;;;;;;;18.95;100.00;101814.41;5113431;28;20047;-63
2023/09/02 07:19:23;;;;;;;13.45;10.63;;;;;;;18.94;100.00;101812.63;5113141;28;20076;-63
2023/09/02 07:21:49;;;;;;;14.13;12.52;;;;;;;19.07;100.00;101813.41;5113095;28;20134;-62
2023/09/02 07:24:15;;;;;;;11.77;10.25;;;;;;;19.15;100.00;101818.72;5113179;28;20028;-62
2023/09/02 07:26:40;;;;;;;13.60;10.05;;;;;;;19.22;100.00;101823.97;5113224;28;20466;-62
2023/09/02 07:29:06;;;;;;;13.75;10.02;;;;;;;19.34;100.00;101820.31;5113042;28;20028;-62
2023/09/02 07:31:32;;;;;;;15.98;11.73;;;;;;;19.43;100.00;101824.69;5095114;28;20562;-63
2023/09/02 07:33:57;;;;;;;16.10;12.82;;;;;;;19.45;100.00;101825.56;5113045;28;20162;-62
2023/09/02 07:36:22;;;;;;;16.60;13.23;;;;;;;19.46;100.00;101819.28;5112742;28;20032;-62
2023/09/02 07:38:48;;;;;;;14.88;13.27;;;;;;;19.46;100.00;101824.66;5113121;28;20032;-63
2023/09/02 07:41:13;;;;;;;15.80;13.07;;;;;;;19.50;100.00;101835.34;5112864;28;20028;-63
2023/09/02 07:43:39;;;;;;;17.23;12.23;;;;;;;19.56;100.00;101836.16;5113020;28;20477;-62
2023/09/02 07:46:04;;;;;;;14.07;10.57;;;;;;;19.54;100.00;101833.50;5113127;28;20058;-62
2023/09/02 07:48:29;;;;;;;13.68;11.50;;;;;;;19.58;100.00;101842.41;5112774;28;20122;-63
2023/09/02 07:50:55;;;;;;;17.33;11.80;;;;;;;19.57;100.00;101845.97;5113065;28;20038;-63
2023/09/02 07:53:20;;;;;;;14.35;12.27;;;;;;;19.56;100.00;101853.13;5094221;28;20541;-62
2023/09/02 07:55:46;;;;;;;19.35;13.20;;;;;;;19.55;100.00;101846.00;5113013;28;20031;-62
2023/09/02 07:58:11;;;;;;;18.50;13.73;;;;;;;19.59;100.00;101849.56;5112699;28;20126;-63
2023/09/02 08:00:37;;;;;;;16.52;13.82;;;;;;;19.57;100.00;101848.66;5112837;28;20035;-62
2023/09/02 08:03:03;;;;;;;18.08;13.85;;;;;;;19.60;100.00;101845.97;5112935;28;20062;-62
2023/09/02 08:05:29;;;;;;;23.50;15.82;;;;;;;19.63;100.00;101848.66;5112685;28;20477;-62
2023/09/02 08:07:56;;;;;;;19.77;15.27;;;;;;;19.64;100.00;101840.56;5112603;28;20037;-63
2023/09/02 08:10:21;;;;;;;19.05;17.15;;;;;;;19.64;100.00;101843.25;5112733;28;20027;-62
2023/09/02 08:12:47;;;;;;;19.73;17.73;;;;;;;19.67;100.00;101850.38;5115331;28;20104;-63
2023/09/02 08:15:13;;;;;;;30.23;18.70;;;;;;;19.71;100.00;101853.03;5116657;28;20020;-63
2023/09/02 08:17:40;;;;;;;21.92;19.15;;;;;;;19.68;100.00;101853.03;5116620;28;20485;-63
2023/09/02 08:20:07;;;;;;;21.20;19.00;;;;;;;19.71;100.00;101860.19;5116678;28;20019;-62
2023/09/02 08:22:33;;;;;;;22.55;19.08;;;;;;;19.71;100.00;101866.44;5116481;28;20036;-62
2023/09/02 08:24:58;;;;;;;21.92;18.77;;;;;;;19.76;100.00;101859.22;5097972;28;20384;-63
2023/09/02 08:27:24;;;;;;;21.38;19.17;;;;;;;19.72;100.00;101853.91;5116584;28;20425;-60
2023/09/02 08:29:50;;;;;;;21.90;19.00;;;;;;;19.73;100.00;101856.56;5116366;28;20019;-61
2023/09/02 08:32:16;;;;;;;20.63;18.48;;;;;;;19.75;100.00;101860.13;5116266;28;20030;-60
2023/09/02 08:34:41;;;;;;;22.83;18.85;;;;;;;19.75;100.00;101854.75;5116212;28;20396;-60
2023/09/02 08:37:06;;;;;;;22.75;19.52;;;;;;;19.82;100.00;101868.09;5094806;28;20060;-64
2023/09/02 08:39:32;;;;;;;22.42;20.05;;;;;;;19.83;100.00;101870.78;5095667;28;20029;-62
2023/09/02 08:41:58;;;;;;;24.52;19.98;;;;;;;19.85;100.00;101876.13;5095699;28;20028;-64
2023/09/02 08:44:27;;;;;;;21.67;19.40;;;;;;;19.87;100.00;101882.34;5094363;28;20039;-61
2023/09/02 08:46:53;;;;;;;21.60;19.33;;;;;;;19.87;100.00;101880.56;5095795;28;20020;-61
2023/09/02 08:49:20;;;;;;;22.95;19.10;;;;;;;19.83;100.00;101884.19;5095477;28;20478;-62
2023/09/02 08:51:46;;;;;;;21.80;19.05;;;;;;;19.87;100.00;101890.38;5095449;28;20547;-62
2023/09/02 08:54:13;;;;;;;25.85;19.10;;;;;;;19.88;100.00;101882.34;5095414;28;20118;-62
2023/09/02 08:56:42;;;;;;;21.88;18.08;;;;;;;19.91;100.00;101885.00;5095482;28;20043;-62
2023/09/02 08:59:13;;;;;;;23.88;19.20;;;;;;;19.95;100.00;101888.50;5095757;28;20028;-62
2023/09/02 09:01:43;;;;;;;21.65;18.30;;;;;;;19.97;100.00;101884.91;5094392;28;20103;-62
2023/09/02 09:04:09;;;;;;;23.45;18.38;;;;;;;19.97;100.00;101892.06;5095515;28;20028;-62
2023/09/02 09:06:36;;;;;;;20.38;17.52;;;;;;;20.01;100.00;101904.56;5095379;28;20020;-61
2023/09/02 09:09:02;;;;;;;20.75;17.52;;;;;;;20.04;100.00;101903.63;5095483;28;20055;-62
2023/09/02 09:11:32;;;;;;;20.95;17.48;;;;;;;20.01;100.00;101901.88;5095278;28;20032;-62
2023/09/02 09:14:01;;;;;;;21.90;18.13;;;;;;;20.04;100.00;101906.28;5095346;28;20112;-62
2023/09/02 09:16:33;;;;;;;20.08;17.90;;;;;;;20.04;100.00;101907.19;5095233;28;20529;-62
2023/09/02 09:18:58;;;;;;;19.48;17.48;;;;;;;20.04;100.00;101911.66;5095043;28;20032;-61
2023/09/02 09:21:24;;;;;;;23.05;17.90;;;;;;;20.10;100.00;101903.56;5095108;28;20028;-62
2023/09/02 09:23:49;;;;;;;19.30;17.10;;;;;;;20.16;100.00;101900.78;5093539;28;20059;-62
2023/09/02 09:26:15;;;;;;;23.45;16.80;;;;;;;20.20;100.00;101902.53;5094951;28;20035;-61
2023/09/02 09:28:58;;;;;;;21.73;17.70;;;;;;;20.27;100.00;101898.88;5095289;28;20012;-62
2023/09/02 09:31:26;;;;;;;20.63;18.05;;;;;;;20.32;100.00;101899.69;5094814;28;20435;-62
2023/09/02 09:34:01;;;;;;;20.77;18.58;;;;;;;20.46;100.00;101907.56;5094983;28;20024;-61
2023/09/02 09:36:29;;;;;;;24.52;19.58;;;;;;;20.48;100.00;101914.75;5095750;28;20027;-62
2023/09/02 09:38:56;;;;;;;25.90;20.23;;;;;;;20.60;100.00;101916.38;5114897;28;20096;-62
2023/09/02 09:41:23;;;;;;;26.02;20.88;;;;;;;20.68;100.00;101935.03;5115105;28;20461;-62
2023/09/02 09:44:07;;;;;;;24.48;21.10;;;;;;;20.76;100.00;101942.09;5115175;28;20019;-61
2023/09/02 09:46:34;;;;;;;23.77;20.48;;;;;;;20.84;100.00;101943.78;5115247;28;20088;-61
2023/09/02 09:49:02;;;;;;;26.02;21.02;;;;;;;20.88;100.00;101948.22;5114962;28;20445;-62
2023/09/02 09:51:28;;;;;;;25.63;21.25;;;;;;;20.94;100.00;101953.47;5114830;28;20068;-62
2023/09/02 09:53:54;;;;;;;26.77;20.73;;;;;;;20.99;100.00;101952.53;5114526;28;20067;-61
2023/09/02 09:56:19;;;;;;;24.48;20.70;;;;;;;21.07;100.00;101947.03;5114803;28;20056;-61
2023/09/02 09:58:46;;;;;;;28.35;21.15;;;;;;;21.16;100.00;101946.00;5114738;28;20106;-61
2023/09/02 10:01:20;;;;;;;31.33;21.25;;;;;;;21.21;100.00;101938.75;5114469;28;20031;-62
2023/09/02 10:03:46;;;;;;;25.00;22.38;;;;;;;21.36;100.00;101946.59;5114537;28;20497;-61
2023/09/02 10:06:11;;;;;;;24.63;21.25;;;;;;;21.47;100.00;101947.31;5114696;28;20104;-62
2023/09/02 10:08:53;;;;;;;24.45;21.85;;;;;;;21.56;100.00;101948.06;5114483;28;20477;-62
2023/09/02 10:11:22;;;;;;;24.80;22.13;;;;;;;21.49;96.95;101952.66;5114546;28;20496;-62
2023/09/02 10:13:51;;;;;;;27.25;23.60;;;;;;;21.50;97.95;101955.34;5114427;28;20030;-62
2023/09/02 10:16:17;;;;;;;25.60;22.85;;;;;;;21.49;98.57;101955.34;5114430;28;20028;-62
2023/09/02 10:18:43;;;;;;;25.88;21.00;;;;;;;21.55;99.79;101955.25;5114345;28;20026;-62
2023/09/02 10:21:11;;;;;;;30.85;21.85;;;;;;;21.64;100.00;101968.53;5114295;28;20039;-62
2023/09/02 10:23:38;;;;;;;24.35;20.23;;;;;;;21.68;98.91;101972.06;5113874;28;20020;-61
2023/09/02 10:26:17;;;;;;;21.92;19.65;;;;;;;21.71;98.69;101978.28;5113305;28;20052;-61
2023/09/02 10:28:43;;;;;;;22.20;19.80;;;;;;;21.86;99.26;101982.50;5114079;28;20035;-62
2023/09/02 10:31:42;;;;;;;22.40;19.70;;;;;;;22.00;99.51;101976.84;5114096;28;20131;-62
2023/09/02 10:34:15;;;;;;;24.42;19.25;;;;;;;22.08;97.00;101974.03;5113573;28;20469;-62
2023/09/02 10:36:47;;;;;;;24.42;20.35;;;;;;;21.99;97.44;101975.09;5113788;28;20410;-62
2023/09/02 10:39:38;;;;;;;24.10;19.25;;;;;;;21.95;98.73;101981.44;5113761;28;20099;-62
2023/09/02 10:42:03;;;;;;;21.92;19.55;;;;;;;21.83;98.74;101978.97;5113834;28;20120;-62
2023/09/02 10:44:30;;;;;;;22.75;20.35;;;;;;;21.78;97.02;101975.47;5110095;28;20155;-61
2023/09/02 10:46:56;;;;;;;25.00;20.42;;;;;;;21.81;99.00;101973.63;5101760;28;20046;-63
2023/09/02 10:49:23;;;;;;;23.02;20.45;;;;;;;21.95;98.70;101979.63;5100590;28;20570;-63
2023/09/02 10:51:49;;;;;;;24.23;20.80;;;;;;;22.05;97.85;101984.84;5106499;28;20378;-60
2023/09/02 10:54:15;;;;;;;22.92;20.42;;;;;;;22.21;98.29;101989.06;5082735;28;20138;-61
2023/09/02 10:56:40;;;;;;;24.98;21.58;;;;;;;22.20;96.87;101982.78;5100982;28;20123;-62
2023/09/02 10:59:07;;;;;;;22.70;20.40;;;;;;;22.23;97.31;101985.44;5102916;28;20031;-61
2023/09/02 11:01:46;;;;;;;22.17;19.77;;;;;;;22.26;97.33;101987.16;5101447;28;20054;-61
2023/09/02 11:04:13;;;;;;;23.20;20.70;;;;;;;22.17;95.87;101993.63;5101457;28;20035;-62
2023/09/02 11:07:15;;;;;;;26.15;21.02;;;;;;;22.25;97.22;101988.09;5103618;28;20024;-61